createdAt,value
2022-11-01T00:03:52.524Z,99943.72
2022-11-01T00:07:54.470Z,99926.97
2022-11-01T00:11:56.360Z,99947.06
2022-11-01T00:15:58.262Z,99943.28
2022-11-01T00:20:00.253Z,99953.88
2022-11-01T00:24:02.147Z,99958.06
2022-11-01T00:28:04.509Z,99961.81
2022-11-01T00:32:07.093Z,99966.81
2022-11-01T00:36:09.237Z,99964.19
2022-11-01T00:40:11.837Z,99953.88
2022-11-01T00:44:13.674Z,99960.91
2022-11-01T00:48:15.465Z,99969.94
2022-11-01T00:52:17.401Z,99946.19
2022-11-01T00:56:19.307Z,99946.66
2022-11-01T01:00:21.233Z,99949.78
2022-11-01T01:04:25.843Z,99924.31
2022-11-01T01:08:28.188Z,99931.41
2022-11-01T01:12:30.339Z,99929.56
2022-11-01T01:16:35.097Z,99925.28
2022-11-01T01:20:37.263Z,99925.22
2022-11-01T01:24:45.455Z,99928.97
2022-11-01T01:28:54.044Z,99923.88
2022-11-01T01:32:59.166Z,99924.25
2022-11-01T01:37:01.101Z,99905.84
2022-11-01T01:41:21.934Z,99918.06
2022-11-01T01:45:34.419Z,99915.31
2022-11-01T01:49:38.697Z,99909.44
2022-11-01T01:53:50.674Z,99907.81
2022-11-01T01:57:52.780Z,99923.34
2022-11-01T02:01:54.806Z,99912.16
2022-11-01T02:06:17.207Z,99921.22
2022-11-01T02:10:21.943Z,99919.25
2022-11-01T02:14:23.831Z,99919.22
2022-11-01T02:18:38.120Z,99920.50
2022-11-01T02:23:32.469Z,99919.94
2022-11-01T02:28:05.028Z,99929.63
2022-11-01T02:32:20.805Z,99908.63
2022-11-01T02:36:31.349Z,99899.22
2022-11-01T02:41:03.642Z,99897.91
2022-11-01T02:45:11.070Z,99911.31
2022-11-01T02:49:19.399Z,99899.34
2022-11-01T02:53:21.361Z,99901.75
2022-11-01T02:57:28.443Z,99892.47
2022-11-01T03:02:07.880Z,99903.25
2022-11-01T03:06:35.464Z,99903.56
2022-11-01T03:11:14.346Z,99899.56
2022-11-01T03:15:47.748Z,99901.41
2022-11-01T03:20:22.810Z,99882.72
2022-11-01T03:24:35.579Z,99884.66
2022-11-01T03:28:45.242Z,99890.31
2022-11-01T03:32:49.465Z,99895.88
2022-11-01T03:37:11.555Z,99886.84
2022-11-01T03:41:15.201Z,99895.03
2022-11-01T03:45:20.803Z,99900.78
2022-11-01T03:49:22.696Z,99902.75
2022-11-01T03:59:16.415Z,99931.53
2022-11-01T04:03:18.251Z,99927.88
2022-11-01T04:07:20.147Z,99917.78
2022-11-01T04:11:21.974Z,99917.94
2022-11-01T04:15:43.074Z,99916.44
2022-11-01T04:20:23.130Z,99934.13
2022-11-01T04:24:24.909Z,99925.09
2022-11-01T04:28:26.815Z,99930.00
2022-11-01T04:32:28.611Z,99928.50
2022-11-01T04:36:30.540Z,99934.22
2022-11-01T04:40:33.053Z,99916.53
2022-11-01T04:44:34.843Z,99939.78
2022-11-01T04:48:36.668Z,99935.72
2022-11-01T04:52:38.446Z,99937.78
2022-11-01T04:56:40.319Z,99928.84
2022-11-01T05:00:44.042Z,99926.94
2022-11-01T05:04:45.938Z,99937.38
2022-11-01T05:08:47.793Z,99926.94
2022-11-01T05:12:49.605Z,99917.28
2022-11-01T05:16:51.461Z,99929.56
2022-11-01T05:20:53.285Z,99921.16
2022-11-01T05:24:55.087Z,99918.06
2022-11-01T05:28:56.990Z,99908.00
2022-11-01T05:32:59.903Z,99926.53
2022-11-01T05:37:01.887Z,99927.34
2022-11-01T05:41:04.372Z,99923.53
2022-11-01T05:45:07.085Z,99913.59
2022-11-01T05:49:09.011Z,99918.91
2022-11-01T05:53:10.935Z,99915.47
2022-11-01T05:57:12.841Z,99924.06
2022-11-01T06:01:17.207Z,99925.50
2022-11-01T06:05:19.164Z,99933.81
2022-11-01T06:09:21.133Z,99941.13
2022-11-01T06:13:23.026Z,99941.13
2022-11-01T06:17:27.797Z,99949.59
2022-11-01T06:21:30.489Z,99938.50
2022-11-01T06:25:36.694Z,99942.88
2022-11-01T06:29:38.713Z,99948.81
2022-11-01T06:33:40.504Z,99964.03
2022-11-01T06:37:42.592Z,99968.44
2022-11-01T06:41:44.469Z,99961.88
2022-11-01T06:45:49.264Z,99974.19
2022-11-01T06:49:51.119Z,99978.63
2022-11-01T06:53:52.950Z,99958.31
2022-11-01T06:57:56.271Z,99972.97
2022-11-01T07:01:58.291Z,99980.38
2022-11-01T07:06:03.513Z,99973.06
2022-11-01T07:10:05.995Z,99971.75
2022-11-01T07:14:07.772Z,99979.69
2022-11-01T07:18:09.898Z,99983.66
2022-11-01T07:22:11.726Z,99984.38
2022-11-01T07:26:13.597Z,99972.28
2022-11-01T07:30:15.686Z,99976.53
2022-11-01T07:34:17.587Z,99983.78
2022-11-01T07:38:19.873Z,99983.22
2022-11-01T07:42:21.739Z,99988.72
2022-11-01T07:46:23.849Z,99972.31
2022-11-01T07:50:25.779Z,99988.09
2022-11-01T07:54:27.623Z,99983.56
2022-11-01T07:58:29.663Z,99977.53
2022-11-01T08:02:31.534Z,99986.38
2022-11-01T08:06:33.449Z,99985.75
2022-11-01T08:10:35.523Z,99982.81
2022-11-01T08:14:37.382Z,99976.91
2022-11-01T08:18:39.274Z,99969.50
2022-11-01T08:22:41.240Z,99979.63
2022-11-01T08:26:43.410Z,99976.34
2022-11-01T08:30:46.590Z,99998.16
2022-11-01T08:34:48.829Z,99991.91
2022-11-01T08:38:50.623Z,99998.81
2022-11-01T08:42:52.481Z,100009.81
2022-11-01T08:47:05.039Z,100014.13
2022-11-01T08:51:07.162Z,100010.28
2022-11-01T08:55:26.887Z,100011.50
2022-11-01T09:00:04.414Z,100019.28
2022-11-01T09:04:07.602Z,100025.28
2022-11-01T09:08:09.444Z,100020.28
2022-11-01T09:12:14.660Z,100029.81
2022-11-01T09:16:17.163Z,100023.88
2022-11-01T09:20:19.592Z,100032.75
2022-11-01T09:24:21.533Z,100016.44
2022-11-01T09:28:23.587Z,100009.75
2022-11-01T09:32:29.233Z,100018.81
2022-11-01T09:36:31.189Z,99992.59
2022-11-01T09:40:39.099Z,100013.69
2022-11-01T09:44:44.126Z,100010.41
2022-11-01T09:48:46.357Z,100003.22
2022-11-01T09:52:50.097Z,100029.34
2022-11-01T09:57:05.993Z,100029.44
2022-11-01T10:02:09.521Z,100051.88
2022-11-01T10:06:52.120Z,100042.25
2022-11-01T10:11:02.735Z,100043.53
2022-11-01T10:15:22.810Z,100034.81
2022-11-01T10:19:26.264Z,100054.84
2022-11-01T10:23:48.508Z,100065.72
2022-11-01T10:28:13.336Z,100060.19
2022-11-01T10:32:41.771Z,100064.47
2022-11-01T10:36:45.116Z,100065.38
2022-11-01T10:40:51.594Z,100061.00
2022-11-01T10:44:56.000Z,100079.38
2022-11-01T10:49:01.463Z,100058.88
2022-11-01T10:53:07.129Z,100052.66
2022-11-01T10:57:12.729Z,100041.56
2022-11-01T11:01:19.429Z,100054.47
2022-11-01T11:05:21.441Z,100044.19
2022-11-01T11:09:35.783Z,100049.56
2022-11-01T11:13:38.131Z,100040.59
2022-11-01T11:17:42.641Z,100021.44
2022-11-01T11:21:45.012Z,100030.59
2022-11-01T11:25:46.980Z,100050.31
2022-11-01T11:30:09.020Z,100041.41
2022-11-01T11:34:19.788Z,100051.44
2022-11-01T11:38:40.014Z,100045.50
2022-11-01T11:42:41.930Z,100058.78
2022-11-01T11:46:56.800Z,100055.53
2022-11-01T11:51:05.887Z,100069.50
2022-11-01T11:55:43.653Z,100056.28
2022-11-01T12:04:07.809Z,100063.72
2022-11-01T12:08:25.429Z,100071.31
2022-11-01T12:12:32.517Z,100058.59
2022-11-01T12:16:41.440Z,100068.97
2022-11-01T12:20:43.943Z,100066.13
2022-11-01T12:24:50.528Z,100071.22
2022-11-01T12:29:38.649Z,100066.59
2022-11-01T12:33:45.853Z,100047.91
2022-11-01T12:38:06.240Z,100054.63
2022-11-01T12:42:08.449Z,100061.31
2022-11-01T12:46:19.301Z,100052.59
2022-11-01T12:50:42.928Z,100068.75
2022-11-01T12:55:15.331Z,100060.31
2022-11-01T12:59:40.068Z,100063.19
2022-11-01T13:04:08.201Z,100059.72
2022-11-01T13:08:55.497Z,100070.34
2022-11-01T13:13:49.489Z,100088.94
2022-11-01T13:18:00.707Z,100086.66
2022-11-01T13:22:21.406Z,100082.41
2022-11-01T13:26:50.692Z,100096.09
2022-11-01T13:31:13.197Z,100112.84
2022-11-01T13:35:58.998Z,100103.59
2022-11-01T13:46:19.031Z,100118.16
2022-11-01T13:51:04.003Z,100116.84
2022-11-01T13:55:22.883Z,100138.50
2022-11-01T13:59:38.074Z,100134.50
2022-11-01T14:03:40.143Z,100134.38
2022-11-01T14:07:44.976Z,100136.91
2022-11-01T14:12:00.413Z,100134.91
2022-11-01T14:16:19.470Z,100136.28
2022-11-01T14:20:31.580Z,100137.13
2022-11-01T14:24:35.435Z,100129.34
2022-11-01T14:28:51.086Z,100132.44
2022-11-01T14:33:01.472Z,100137.75
2022-11-01T14:37:11.678Z,100128.31
2022-11-01T14:41:16.419Z,100137.03
2022-11-01T14:45:45.684Z,100135.50
2022-11-01T14:49:50.225Z,100136.28
2022-11-01T14:54:22.777Z,100139.91
2022-11-01T15:04:27.463Z,100138.88
2022-11-01T15:08:32.892Z,100149.69
2022-11-01T15:12:48.058Z,100154.91
2022-11-01T15:16:53.648Z,100149.19
2022-11-01T15:25:28.205Z,100145.97
2022-11-01T15:29:30.715Z,100139.88
2022-11-01T15:33:41.261Z,100149.13
2022-11-01T15:37:58.803Z,100160.00
2022-11-01T15:42:35.174Z,100151.13
2022-11-01T15:47:39.777Z,100151.88
2022-11-01T15:52:49.205Z,100147.31
2022-11-01T15:58:27.614Z,100151.91
2022-11-01T16:02:05.884Z,100163.91
2022-11-01T16:07:13.232Z,100172.75
2022-11-01T16:11:27.848Z,100161.16
2022-11-01T16:15:38.710Z,100159.38
2022-11-01T16:19:56.941Z,100165.34
2022-11-01T16:24:34.340Z,100177.66
2022-11-01T16:28:43.332Z,100197.31
2022-11-01T16:32:51.650Z,100201.75
2022-11-01T16:41:39.608Z,100215.38
2022-11-01T16:45:43.253Z,100222.09
2022-11-01T16:49:50.401Z,100234.53
2022-11-01T16:53:53.346Z,100220.56
2022-11-01T16:57:55.533Z,100247.25
2022-11-01T17:01:58.586Z,100251.38
2022-11-01T17:06:00.690Z,100250.75
2022-11-01T17:10:14.393Z,100254.25
2022-11-01T17:14:17.510Z,100245.84
2022-11-01T17:18:29.261Z,100274.75
2022-11-01T17:22:34.811Z,100273.22
2022-11-01T17:26:36.767Z,100286.50
2022-11-01T17:30:50.292Z,100287.78
2022-11-01T17:34:53.806Z,100292.97
2022-11-01T17:38:55.659Z,100294.38
2022-11-01T17:43:14.514Z,100287.91
2022-11-01T17:47:18.897Z,100284.19
2022-11-01T17:52:38.587Z,100293.66
2022-11-01T18:06:20.917Z,100285.50
2022-11-01T18:10:35.677Z,100303.28
2022-11-01T18:21:12.466Z,100282.94
2022-11-01T18:25:32.927Z,100290.78
2022-11-01T18:29:39.954Z,100285.56
2022-11-01T18:34:08.910Z,100297.81
2022-11-01T18:38:52.457Z,100304.84
2022-11-01T18:42:54.631Z,100302.16
2022-11-01T18:47:42.045Z,100308.72
2022-11-01T18:51:44.784Z,100310.19
2022-11-01T18:55:52.106Z,100317.38
2022-11-01T20:56:12.665Z,100410.94
2022-11-01T21:05:25.837Z,100408.59
2022-11-01T21:10:02.929Z,100406.38
2022-11-01T22:34:00.394Z,100377.31
2022-11-01T22:38:19.202Z,100387.94
2022-11-01T22:42:21.195Z,100390.13
2022-11-01T22:46:57.946Z,100386.84
2022-11-01T22:51:14.010Z,100393.16
2022-11-01T22:55:28.352Z,100393.31
2022-11-01T22:59:33.903Z,100386.97
2022-11-01T23:03:39.853Z,100386.81
2022-11-01T23:07:53.353Z,100390.41
2022-11-01T23:12:32.826Z,100400.88
2022-11-01T23:16:39.919Z,100419.38
2022-11-01T23:20:41.938Z,100427.72
2022-11-01T23:24:44.006Z,100425.19
2022-11-01T23:29:01.221Z,100431.22
2022-11-01T23:33:03.574Z,100433.59
2022-11-01T23:37:12.878Z,100425.63
2022-11-01T23:41:27.536Z,100431.91
2022-11-01T23:45:38.565Z,100442.41
2022-11-01T23:49:40.448Z,100445.94
2022-11-01T23:53:42.400Z,100443.81
2022-11-01T23:57:44.236Z,100447.75
